Mercedes, TX (78570)

12:03 AM CST on December 08, 2016 (GMT -0600)
La Feria Assembly Hall | | Change Station

Elev 66 ft 26.14 °N, 97.82 °W | Updated 21 seconds ago

Overcast
Overcast
67.6 °F
Feels Like 67.6 °F
N
8.1
Wind Variable Wind from NNE
Gusts 8.1 mph

Today
High -- | Low -- °F
--% Chance of Precip.
Yesterday
High -- | Low -- °F
Precip. -- in
Pressure 30.03 in
Visibility 7.0 miles
Clouds Overcast 1000 ft
Dew Point 55 °F
Humidity 64%
Rainfall 0.00 in
Snow Depth Not available.
7:07 AM 5:40 PM
First Quarter, 60% visible
METAR KT65 080555Z AUTO 02005KT 7SM OVC010 18/17 A3003 RMK AO2 T01810166 10220 20181 402460140
Pressure 30.03 in
Visibility 7.0 miles
Clouds Overcast 1000 ft
Dew Point 55 °F
Humidity 64%
Rainfall 0.00 in
Snow Depth Not available.
7:07 AM 5:40 PM
First Quarter, 60% visible
METAR KT65 080555Z AUTO 02005KT 7SM OVC010 18/17 A3003 RMK AO2 T01810166 10220 20181 402460140

10-Day Weather Forecast

Almanac

Astronomy

Dec. 08, 2016 Rise Set
Actual Time
Civil Twilight
Nautical Twilight
Astronomical Twilight
Moon
Length of Visible Light
Length of Day
Tomorrow will be .
, % of the Moon is Illuminated

Today's Extremes

State Highs State Lows

Community

WunderPhotos

Upload Photos

1,956,259 photos uploaded!

WunderBlog® & News

Nearby

Air Quality

  Air Quality AQ Index Pollutant
Not available.

Snow Depth

Station Depth Elevation

Earthquake Activity

City Distance Mag. Time & Date
Minimum magnitude displayed is 2.5.

Coastal Water Temperatures

Place Temperature

Stations

Nearby Weather Stations

Station Location Temp. Windchill Dew Point Humidity Wind Precip. Elev Updated Type
                   

Watches & Warnings

There are currently no watches in effect.